createdAt,value
2022-10-16T00:01:09.132Z,10.27
2022-10-16T00:02:40.685Z,10.27
2022-10-16T00:04:12.518Z,10.25
2022-10-16T00:05:44.188Z,10.24
2022-10-16T00:07:15.767Z,10.23
2022-10-16T00:08:47.395Z,10.21
2022-10-16T00:10:19.081Z,10.19
2022-10-16T00:11:50.704Z,10.19
2022-10-16T00:13:22.424Z,10.18
2022-10-16T00:14:54.406Z,10.17
2022-10-16T00:16:26.282Z,10.16
2022-10-16T00:17:58.049Z,10.19
2022-10-16T00:19:29.615Z,10.17
2022-10-16T00:21:05.254Z,10.18
2022-10-16T00:22:36.845Z,10.17
2022-10-16T00:24:10.054Z,10.22
2022-10-16T00:25:41.938Z,10.28
2022-10-16T00:27:13.564Z,10.30
2022-10-16T00:28:48.563Z,10.31
2022-10-16T00:30:21.028Z,10.29
2022-10-16T00:31:52.609Z,10.26
2022-10-16T00:33:24.346Z,10.25
2022-10-16T00:34:55.863Z,10.27
2022-10-16T00:36:27.638Z,10.25
2022-10-16T00:37:59.295Z,10.24
2022-10-16T00:39:30.962Z,10.25
2022-10-16T00:41:02.517Z,10.29
2022-10-16T00:42:34.200Z,10.29
2022-10-16T00:44:25.803Z,10.26
2022-10-16T00:45:57.352Z,10.23
2022-10-16T00:47:30.413Z,10.22
2022-10-16T00:49:04.614Z,10.23
2022-10-16T00:50:36.306Z,10.27
2022-10-16T00:52:08.101Z,10.28
2022-10-16T00:53:40.287Z,10.31
2022-10-16T00:55:12.712Z,10.31
2022-10-16T00:56:44.767Z,10.30
2022-10-16T00:58:16.481Z,10.23
2022-10-16T00:59:48.272Z,10.15
2022-10-16T01:01:20.024Z,10.08
2022-10-16T01:02:55.467Z,10.04
2022-10-16T01:04:27.252Z,10.02
2022-10-16T01:06:16.191Z,9.96
2022-10-16T01:07:54.840Z,9.90
2022-10-16T01:09:38.030Z,9.82
2022-10-16T01:11:21.128Z,9.80
2022-10-16T01:12:55.662Z,9.75
2022-10-16T01:14:35.960Z,9.72
2022-10-16T01:16:09.313Z,9.73
2022-10-16T01:17:40.991Z,9.71
2022-10-16T01:19:27.639Z,9.66
2022-10-16T01:21:03.496Z,9.64
2022-10-16T01:22:39.129Z,9.67
2022-10-16T01:24:28.638Z,9.67
2022-10-16T01:26:00.551Z,9.65
2022-10-16T01:27:32.219Z,9.64
2022-10-16T01:29:24.369Z,9.64
2022-10-16T01:30:57.046Z,9.60
2022-10-16T01:32:39.105Z,9.54
2022-10-16T01:34:13.836Z,9.56
2022-10-16T01:36:04.620Z,9.52
2022-10-16T01:37:38.093Z,9.48
2022-10-16T01:39:10.854Z,9.48
2022-10-16T01:40:43.100Z,9.45
2022-10-16T01:42:18.559Z,9.43
2022-10-16T01:43:51.110Z,9.38
2022-10-16T01:45:22.777Z,9.33
2022-10-16T01:46:54.448Z,9.28
2022-10-16T01:48:26.512Z,9.29
2022-10-16T01:49:58.907Z,9.27
2022-10-16T01:51:30.922Z,9.23
2022-10-16T01:53:02.728Z,9.23
2022-10-16T01:54:35.088Z,9.22
2022-10-16T01:56:08.041Z,9.21
2022-10-16T01:57:40.017Z,9.17
2022-10-16T01:59:12.460Z,9.14
2022-10-16T02:00:45.198Z,9.12
2022-10-16T02:02:17.130Z,9.08
2022-10-16T02:03:49.606Z,9.05
2022-10-16T02:05:23.706Z,9.02
2022-10-16T02:06:55.338Z,9.01
2022-10-16T02:08:29.393Z,8.99
2022-10-16T02:10:01.362Z,8.96
2022-10-16T02:11:33.071Z,8.89
2022-10-16T02:13:07.503Z,8.86
2022-10-16T02:14:39.092Z,8.80
2022-10-16T02:16:13.929Z,8.76
2022-10-16T02:17:45.691Z,8.75
2022-10-16T02:19:17.987Z,8.72
2022-10-16T02:20:49.589Z,8.72
2022-10-16T02:22:40.027Z,8.71
2022-10-16T02:24:20.698Z,8.66
2022-10-16T02:25:53.681Z,8.64
2022-10-16T02:27:25.308Z,8.59
2022-10-16T02:28:57.974Z,8.59
2022-10-16T02:30:40.791Z,8.58
2022-10-16T02:32:12.352Z,8.54
2022-10-16T02:33:43.953Z,8.49
2022-10-16T02:35:16.684Z,8.47
2022-10-16T02:36:48.390Z,8.44
2022-10-16T02:38:19.940Z,8.40
2022-10-16T02:39:51.442Z,8.35
2022-10-16T02:41:23.299Z,8.32
2022-10-16T02:42:55.197Z,8.30
2022-10-16T02:44:26.808Z,8.25
2022-10-16T02:45:58.397Z,8.27
2022-10-16T02:47:29.964Z,8.31
2022-10-16T02:49:01.584Z,8.34
2022-10-16T02:50:33.199Z,8.34
2022-10-16T02:52:04.883Z,8.34
2022-10-16T02:53:37.340Z,8.36
2022-10-16T02:55:09.085Z,8.37
2022-10-16T02:56:40.701Z,8.38
2022-10-16T02:58:12.310Z,8.41
2022-10-16T02:59:43.909Z,8.45
2022-10-16T03:01:17.953Z,8.49
2022-10-16T03:02:49.696Z,8.50
2022-10-16T03:04:21.241Z,8.49
2022-10-16T03:05:53.246Z,8.47
2022-10-16T03:07:25.021Z,8.44
2022-10-16T03:08:56.875Z,8.41
2022-10-16T03:10:29.183Z,8.38
2022-10-16T03:12:00.841Z,8.33
2022-10-16T03:13:32.677Z,8.32
2022-10-16T03:15:04.640Z,8.27
2022-10-16T03:16:36.184Z,8.25
2022-10-16T03:18:07.859Z,8.24
2022-10-16T03:19:39.386Z,8.24
2022-10-16T03:21:10.980Z,8.26
2022-10-16T03:22:42.496Z,8.24
2022-10-16T03:24:14.143Z,8.24
2022-10-16T03:25:47.300Z,8.26
2022-10-16T03:27:19.977Z,8.22
2022-10-16T03:28:51.500Z,8.24
2022-10-16T03:30:23.134Z,8.26
2022-10-16T03:31:54.877Z,8.24
2022-10-16T03:33:26.896Z,8.18
2022-10-16T03:34:58.456Z,8.14
2022-10-16T03:36:29.943Z,8.13
2022-10-16T03:38:02.027Z,8.11
2022-10-16T03:39:33.514Z,8.11
2022-10-16T03:41:05.374Z,8.08
2022-10-16T03:42:36.969Z,8.01
2022-10-16T03:44:08.612Z,8.00
2022-10-16T03:45:40.989Z,8.02
2022-10-16T03:47:12.594Z,8.00
2022-10-16T03:48:44.288Z,7.99
2022-10-16T03:50:15.951Z,7.96
2022-10-16T03:51:47.581Z,7.97
2022-10-16T03:53:19.236Z,8.00
2022-10-16T03:54:50.834Z,8.03
2022-10-16T03:56:22.496Z,8.07
2022-10-16T03:57:54.167Z,8.13
2022-10-16T03:59:25.733Z,8.16
2022-10-16T04:00:57.574Z,8.12
2022-10-16T04:02:29.225Z,8.07
2022-10-16T04:04:00.997Z,8.03
2022-10-16T04:05:32.506Z,8.01
2022-10-16T04:07:04.068Z,8.01
2022-10-16T04:08:37.657Z,8.01
2022-10-16T04:10:09.627Z,8.01
2022-10-16T04:11:41.306Z,8.02
2022-10-16T04:13:13.086Z,8.01
2022-10-16T04:14:44.691Z,8.00
2022-10-16T04:16:16.190Z,7.97
2022-10-16T04:17:48.064Z,7.95
2022-10-16T04:19:19.714Z,7.91
2022-10-16T04:20:51.208Z,7.94
2022-10-16T04:22:22.840Z,7.94
2022-10-16T04:23:54.490Z,7.86
2022-10-16T04:25:26.111Z,7.80
2022-10-16T04:26:57.937Z,7.76
2022-10-16T04:28:29.690Z,7.75
2022-10-16T04:30:01.533Z,7.76
2022-10-16T04:31:33.184Z,7.78
2022-10-16T04:33:04.751Z,7.74
2022-10-16T04:34:36.374Z,7.71
2022-10-16T04:36:08.004Z,7.63
2022-10-16T04:37:39.628Z,7.60
2022-10-16T04:39:11.170Z,7.57
2022-10-16T04:40:43.403Z,7.50
2022-10-16T04:42:14.937Z,7.47
2022-10-16T04:43:46.700Z,7.43
2022-10-16T04:45:18.376Z,7.39
2022-10-16T04:46:51.834Z,7.34
2022-10-16T04:48:23.462Z,7.26
2022-10-16T04:49:55.682Z,7.26
2022-10-16T04:51:28.781Z,7.26
2022-10-16T04:53:00.628Z,7.27
2022-10-16T04:54:32.412Z,7.30
2022-10-16T04:56:04.093Z,7.33
2022-10-16T04:57:35.752Z,7.34
2022-10-16T04:59:07.451Z,7.35
2022-10-16T05:00:40.141Z,7.40
2022-10-16T05:02:11.786Z,7.45
2022-10-16T05:03:43.930Z,7.45
2022-10-16T05:05:15.921Z,7.42
2022-10-16T05:06:48.750Z,7.39
2022-10-16T05:08:20.549Z,7.34
2022-10-16T05:09:52.151Z,7.29
2022-10-16T05:11:23.760Z,7.23
2022-10-16T05:12:55.990Z,7.23
2022-10-16T05:14:27.735Z,7.24
2022-10-16T05:16:00.595Z,7.27
2022-10-16T05:17:32.176Z,7.27
2022-10-16T05:19:26.316Z,7.26
2022-10-16T05:20:55.486Z,7.27
2022-10-16T05:22:27.271Z,7.32
2022-10-16T05:23:58.868Z,7.37
2022-10-16T05:25:30.523Z,7.40
2022-10-16T05:27:02.182Z,7.47
2022-10-16T05:28:33.883Z,7.54
2022-10-16T05:30:08.565Z,7.63
2022-10-16T05:31:41.599Z,7.73
2022-10-16T05:33:13.426Z,7.87
2022-10-16T05:34:45.590Z,8.00
2022-10-16T05:36:17.875Z,8.11
2022-10-16T05:37:49.521Z,8.21
2022-10-16T05:39:21.272Z,8.31
2022-10-16T05:40:53.728Z,8.43
2022-10-16T05:42:25.251Z,8.56
2022-10-16T05:43:56.794Z,8.60
2022-10-16T05:45:28.708Z,8.53
2022-10-16T05:47:00.397Z,8.53
2022-10-16T05:48:32.256Z,8.59
2022-10-16T05:50:05.682Z,8.67
2022-10-16T05:51:37.302Z,8.76
2022-10-16T05:53:08.928Z,8.84
2022-10-16T05:54:40.599Z,8.88
2022-10-16T05:56:12.851Z,8.89
2022-10-16T05:57:44.549Z,8.95
2022-10-16T05:59:16.419Z,9.00
2022-10-16T06:00:54.797Z,9.06
2022-10-16T06:02:26.487Z,9.15
2022-10-16T06:03:58.377Z,9.23
2022-10-16T06:05:30.066Z,9.36
2022-10-16T06:07:01.742Z,9.47
2022-10-16T06:08:33.784Z,9.64
2022-10-16T06:10:05.923Z,9.86
2022-10-16T06:11:37.707Z,10.04
2022-10-16T06:13:09.476Z,10.25
2022-10-16T06:14:41.697Z,10.43
2022-10-16T06:16:13.852Z,10.57
2022-10-16T06:17:45.620Z,10.62
2022-10-16T06:19:18.676Z,10.53
2022-10-16T06:20:50.360Z,10.56
2022-10-16T06:22:22.068Z,10.65
2022-10-16T06:23:54.310Z,10.68
2022-10-16T06:25:25.983Z,10.65
2022-10-16T06:26:57.702Z,10.61
2022-10-16T06:28:29.628Z,10.60
2022-10-16T06:30:01.295Z,10.72
2022-10-16T06:31:35.454Z,10.78
2022-10-16T06:33:07.178Z,10.80
2022-10-16T06:34:43.377Z,10.70
2022-10-16T06:36:17.096Z,10.66
2022-10-16T06:37:48.784Z,10.75
2022-10-16T06:39:20.452Z,10.85
2022-10-16T06:40:52.187Z,10.90
2022-10-16T06:42:24.314Z,11.04
2022-10-16T06:43:56.210Z,11.26
2022-10-16T06:45:27.820Z,11.50
2022-10-16T06:46:59.497Z,11.56
2022-10-16T06:48:31.385Z,11.50
2022-10-16T06:50:03.598Z,11.52
2022-10-16T06:51:40.455Z,11.67
2022-10-16T06:53:14.347Z,11.87
2022-10-16T06:54:46.191Z,12.00
2022-10-16T06:56:24.584Z,12.21
2022-10-16T06:57:56.305Z,12.48
2022-10-16T06:59:27.928Z,12.73
2022-10-16T07:00:59.765Z,12.98
2022-10-16T07:02:31.442Z,13.21
2022-10-16T07:04:03.565Z,13.37
2022-10-16T07:05:41.283Z,13.43
2022-10-16T07:07:13.368Z,13.50
2022-10-16T07:08:45.518Z,13.62
2022-10-16T07:10:17.332Z,13.73
2022-10-16T07:11:49.450Z,13.82
2022-10-16T07:13:21.229Z,13.90
2022-10-16T07:14:53.434Z,13.96
2022-10-16T07:16:26.482Z,14.06
2022-10-16T07:17:58.320Z,14.15
2022-10-16T07:19:33.431Z,14.30
2022-10-16T07:21:10.011Z,14.40
2022-10-16T07:22:42.260Z,14.44
2022-10-16T07:24:15.222Z,14.52
2022-10-16T07:25:46.966Z,14.51
2022-10-16T07:27:25.240Z,14.58
2022-10-16T07:28:58.504Z,14.57
2022-10-16T07:30:30.352Z,14.66
2022-10-16T07:32:02.869Z,14.74
2022-10-16T07:33:34.592Z,14.78
2022-10-16T07:35:06.609Z,14.90
2022-10-16T07:36:38.355Z,15.00
2022-10-16T07:38:10.492Z,15.00
2022-10-16T07:39:42.600Z,15.01
2022-10-16T07:41:18.353Z,15.05
2022-10-16T07:42:50.552Z,15.21
2022-10-16T07:44:22.285Z,15.33
2022-10-16T07:45:54.982Z,15.47
2022-10-16T07:47:27.091Z,15.55
2022-10-16T07:48:59.211Z,15.63
2022-10-16T07:50:31.369Z,15.72
2022-10-16T07:52:03.439Z,15.82
2022-10-16T07:53:36.465Z,15.90
2022-10-16T07:55:09.484Z,16.00
2022-10-16T07:56:43.814Z,16.07
2022-10-16T07:58:15.991Z,16.10
2022-10-16T07:59:47.962Z,16.15
2022-10-16T08:01:19.879Z,16.18
2022-10-16T08:02:51.613Z,16.22
2022-10-16T08:04:23.689Z,16.39
2022-10-16T08:05:55.578Z,16.54
2022-10-16T08:07:27.752Z,16.68
2022-10-16T08:09:01.296Z,16.87
2022-10-16T08:10:33.189Z,17.04
2022-10-16T08:12:05.484Z,17.19
2022-10-16T08:13:37.648Z,17.34
2022-10-16T08:15:09.853Z,17.52
2022-10-16T08:16:41.549Z,17.60
2022-10-16T08:18:13.694Z,17.68
2022-10-16T08:19:45.997Z,17.72
2022-10-16T08:21:20.486Z,17.80
2022-10-16T08:22:53.145Z,17.82
2022-10-16T08:24:24.892Z,17.80
2022-10-16T08:25:56.657Z,17.83
2022-10-16T08:27:34.810Z,17.89
2022-10-16T08:29:06.637Z,17.85
2022-10-16T08:30:38.430Z,17.92
2022-10-16T08:32:10.475Z,18.04
2022-10-16T08:33:42.665Z,18.15
2022-10-16T08:35:14.816Z,18.27
2022-10-16T08:36:46.345Z,18.30
2022-10-16T08:38:18.544Z,18.34
2022-10-16T08:39:50.288Z,18.42
2022-10-16T08:41:25.492Z,18.45
2022-10-16T08:43:16.427Z,18.51
2022-10-16T08:44:54.114Z,18.56
2022-10-16T08:46:32.311Z,18.59
2022-10-16T08:48:25.120Z,18.67
2022-10-16T08:49:58.273Z,18.67
2022-10-16T08:51:33.297Z,18.74
2022-10-16T08:53:05.194Z,18.79
2022-10-16T08:54:41.854Z,18.91
2022-10-16T08:56:13.812Z,19.09
2022-10-16T08:57:46.219Z,19.26
2022-10-16T08:59:18.353Z,19.40
2022-10-16T09:00:56.985Z,19.52
2022-10-16T09:02:58.279Z,19.63
2022-10-16T09:04:36.421Z,19.76
2022-10-16T09:06:23.372Z,19.86
2022-10-16T09:08:13.102Z,19.99
2022-10-16T09:09:54.118Z,20.14
2022-10-16T09:11:41.441Z,20.10
2022-10-16T09:13:29.916Z,20.02
2022-10-16T09:15:20.742Z,20.05
2022-10-16T09:17:15.976Z,20.26
2022-10-16T09:19:00.033Z,20.44
2022-10-16T09:20:33.340Z,20.59
2022-10-16T09:22:12.062Z,20.64
2022-10-16T09:23:43.785Z,20.70
2022-10-16T09:25:20.939Z,20.75
2022-10-16T09:26:52.876Z,20.84
2022-10-16T09:28:24.879Z,20.88
2022-10-16T09:29:59.649Z,20.82
2022-10-16T09:31:31.997Z,20.86
2022-10-16T09:33:03.765Z,20.92
2022-10-16T09:34:36.095Z,21.00
2022-10-16T09:36:08.002Z,21.08
2022-10-16T09:37:39.697Z,21.10
2022-10-16T09:39:12.805Z,21.21
2022-10-16T09:40:44.611Z,21.32
2022-10-16T09:42:25.349Z,21.38
2022-10-16T09:44:00.532Z,21.43
2022-10-16T09:45:32.264Z,21.44
2022-10-16T09:47:12.363Z,21.43
2022-10-16T09:48:48.881Z,21.50
2022-10-16T09:50:23.694Z,21.58
2022-10-16T09:52:14.181Z,21.59
2022-10-16T09:53:47.265Z,21.69
2022-10-16T09:55:19.151Z,21.76
2022-10-16T09:56:53.144Z,21.88
2022-10-16T09:58:25.708Z,21.99
2022-10-16T09:59:57.840Z,22.12
2022-10-16T10:01:39.886Z,22.17
2022-10-16T10:03:12.029Z,22.21
2022-10-16T10:04:46.040Z,22.30
2022-10-16T10:06:27.195Z,22.37
2022-10-16T10:08:04.196Z,22.51
2022-10-16T10:09:38.810Z,22.67
2022-10-16T10:11:15.269Z,22.67
2022-10-16T10:12:47.782Z,22.71
2022-10-16T10:14:20.910Z,22.84
2022-10-16T10:15:52.745Z,22.90
2022-10-16T10:17:25.062Z,22.92
2022-10-16T10:19:00.505Z,22.95
2022-10-16T10:20:36.479Z,22.98
2022-10-16T10:22:21.103Z,23.05
2022-10-16T10:23:58.647Z,23.04
2022-10-16T10:25:33.216Z,23.05
2022-10-16T10:27:07.155Z,23.10
2022-10-16T10:28:50.795Z,23.09
2022-10-16T10:30:26.641Z,23.05
2022-10-16T10:32:07.145Z,23.18
2022-10-16T10:33:38.856Z,23.22
2022-10-16T10:35:15.775Z,23.31
2022-10-16T10:36:48.971Z,23.44
2022-10-16T10:38:28.910Z,23.56
2022-10-16T10:40:00.805Z,23.64
2022-10-16T10:41:48.595Z,23.72
2022-10-16T10:43:32.773Z,23.77
2022-10-16T10:45:20.260Z,23.84
2022-10-16T10:46:53.242Z,23.92
2022-10-16T10:48:32.944Z,24.03
2022-10-16T10:50:10.286Z,24.05
2022-10-16T10:51:45.035Z,24.12
2022-10-16T10:53:24.158Z,24.16
2022-10-16T10:55:05.232Z,24.15
2022-10-16T10:56:44.809Z,24.18
2022-10-16T10:58:36.150Z,24.20
2022-10-16T11:00:11.792Z,24.26
2022-10-16T11:01:55.900Z,24.32
2022-10-16T11:03:46.699Z,24.43
2022-10-16T11:05:18.621Z,24.51
2022-10-16T11:06:51.765Z,24.64
2022-10-16T11:08:25.959Z,24.78
2022-10-16T11:10:04.564Z,24.84
2022-10-16T11:11:37.071Z,24.86
2022-10-16T11:13:17.537Z,24.88
2022-10-16T11:14:56.863Z,24.99
2022-10-16T11:16:33.321Z,25.08
2022-10-16T11:18:08.390Z,25.14
2022-10-16T11:19:45.371Z,25.21
2022-10-16T11:21:17.331Z,25.33
2022-10-16T11:22:54.210Z,25.47
2022-10-16T11:24:31.558Z,25.59
2022-10-16T11:26:03.741Z,25.63
2022-10-16T11:27:37.389Z,25.61
2022-10-16T11:29:14.030Z,25.54
2022-10-16T11:30:47.443Z,25.54
2022-10-16T11:32:45.355Z,25.59
2022-10-16T11:34:18.628Z,25.56
2022-10-16T11:35:53.153Z,25.49
2022-10-16T11:37:34.842Z,25.48
2022-10-16T11:39:24.679Z,25.52
2022-10-16T11:40:58.824Z,25.55
2022-10-16T11:42:35.433Z,25.57
2022-10-16T11:44:16.612Z,25.66
2022-10-16T11:45:50.803Z,25.79
2022-10-16T11:47:57.437Z,25.82
2022-10-16T11:49:25.927Z,25.82
2022-10-16T11:50:58.485Z,25.81
2022-10-16T11:52:32.714Z,25.86
2022-10-16T11:54:16.627Z,25.86
2022-10-16T11:55:48.311Z,25.90
2022-10-16T11:57:28.515Z,25.94
2022-10-16T11:59:00.529Z,26.00
2022-10-16T12:00:42.444Z,26.09
2022-10-16T12:02:26.836Z,26.22
2022-10-16T12:04:07.984Z,26.35
2022-10-16T12:06:00.444Z,26.36
2022-10-16T12:07:34.048Z,26.25
2022-10-16T12:09:05.640Z,26.28
2022-10-16T12:12:28.233Z,26.28
2022-10-16T12:14:28.537Z,26.28
2022-10-16T12:16:06.460Z,26.31
2022-10-16T12:17:38.671Z,26.41
2022-10-16T12:19:14.623Z,26.44
2022-10-16T12:20:48.503Z,26.46
2022-10-16T12:22:20.513Z,26.39
2022-10-16T12:23:56.254Z,26.41
2022-10-16T12:25:29.461Z,26.44
2022-10-16T12:27:01.359Z,26.46
2022-10-16T12:28:34.105Z,26.47
2022-10-16T12:30:07.323Z,26.48
2022-10-16T12:31:49.574Z,26.47
2022-10-16T12:33:26.965Z,26.46
2022-10-16T12:34:58.889Z,26.26
2022-10-16T12:36:32.315Z,26.18
2022-10-16T12:38:07.846Z,26.22
2022-10-16T12:39:53.154Z,26.25
2022-10-16T12:41:34.406Z,26.34
2022-10-16T12:43:27.384Z,26.50
2022-10-16T12:45:01.595Z,26.59
2022-10-16T12:46:37.148Z,26.69
2022-10-16T12:48:19.851Z,26.80
2022-10-16T12:49:52.847Z,26.74
2022-10-16T12:51:35.445Z,26.74
2022-10-16T12:53:20.475Z,26.76
2022-10-16T12:54:52.108Z,26.76
2022-10-16T12:56:27.669Z,26.72
2022-10-16T12:58:08.277Z,26.66
2022-10-16T13:23:30.865Z,25.90
2022-10-16T13:25:17.622Z,26.04
2022-10-16T13:26:49.346Z,26.10
2022-10-16T13:28:22.694Z,26.19
2022-10-16T13:29:56.786Z,26.31
2022-10-16T13:31:29.298Z,26.38
2022-10-16T13:33:01.235Z,26.31
2022-10-16T13:34:33.226Z,26.25
2022-10-16T13:36:05.583Z,25.99
2022-10-16T13:37:37.387Z,25.70
2022-10-16T13:39:14.218Z,25.57
2022-10-16T13:40:56.391Z,25.42
2022-10-16T13:42:28.659Z,25.09
2022-10-16T13:44:00.444Z,25.04
2022-10-16T13:45:32.215Z,24.91
2022-10-16T13:47:04.294Z,24.80
2022-10-16T13:48:36.494Z,24.72
2022-10-16T13:50:12.215Z,24.69
2022-10-16T13:51:54.805Z,24.68
2022-10-16T13:53:26.509Z,24.56
2022-10-16T13:55:01.071Z,24.50
2022-10-16T13:56:34.222Z,24.47
2022-10-16T13:58:09.187Z,24.44
2022-10-16T13:59:41.611Z,24.38
2022-10-16T14:01:20.619Z,24.21
2022-10-16T14:02:53.692Z,24.31
2022-10-16T14:04:25.474Z,23.98
2022-10-16T14:06:00.423Z,23.76
2022-10-16T14:07:33.024Z,23.50
2022-10-16T14:09:10.732Z,23.35
2022-10-16T14:10:42.257Z,23.20
2022-10-16T14:12:13.911Z,23.18
2022-10-16T14:13:45.885Z,23.08
2022-10-16T14:15:18.300Z,23.04
2022-10-16T14:16:50.302Z,23.12
2022-10-16T14:18:23.037Z,23.24
2022-10-16T14:19:59.490Z,23.07
2022-10-16T14:21:34.789Z,22.77
2022-10-16T14:23:20.037Z,22.69
2022-10-16T14:24:51.621Z,22.55
2022-10-16T14:26:25.090Z,22.44
2022-10-16T14:28:15.047Z,22.38
2022-10-16T14:29:46.743Z,22.27
2022-10-16T14:31:21.518Z,22.20
2022-10-16T14:32:57.262Z,22.14
2022-10-16T14:34:29.183Z,22.22
2022-10-16T14:36:04.139Z,22.30
2022-10-16T14:37:35.908Z,22.29
2022-10-16T14:39:14.932Z,22.20
2022-10-16T14:40:48.274Z,22.16
2022-10-16T14:42:20.758Z,22.15
2022-10-16T14:44:02.788Z,22.08
2022-10-16T14:45:35.643Z,21.95
2022-10-16T14:47:18.518Z,21.94
2022-10-16T14:48:52.600Z,21.91
2022-10-16T14:50:24.667Z,21.79
2022-10-16T14:51:56.631Z,21.72
2022-10-16T14:53:28.260Z,21.64
2022-10-16T14:55:01.834Z,21.61
2022-10-16T14:56:44.048Z,21.58
2022-10-16T14:58:45.492Z,21.57
2022-10-16T15:00:19.103Z,21.52
2022-10-16T15:01:50.682Z,21.55
2022-10-16T15:03:23.325Z,21.53
2022-10-16T15:04:55.673Z,21.47
2022-10-16T15:06:27.450Z,21.41
2022-10-16T15:07:59.112Z,21.40
2022-10-16T15:09:30.776Z,21.38
2022-10-16T15:11:02.449Z,21.41
2022-10-16T15:12:34.446Z,21.38
2022-10-16T15:14:06.301Z,21.34
2022-10-16T15:15:38.657Z,21.24
2022-10-16T15:17:11.581Z,21.14
2022-10-16T15:18:43.493Z,21.10
2022-10-16T15:20:15.471Z,21.06
2022-10-16T15:21:47.143Z,21.05
2022-10-16T15:23:19.819Z,20.96
2022-10-16T15:24:51.755Z,20.93
2022-10-16T15:26:24.185Z,20.86
2022-10-16T15:27:55.892Z,20.72
2022-10-16T15:29:27.594Z,20.55
2022-10-16T15:30:59.394Z,20.37
2022-10-16T15:32:31.565Z,20.25
2022-10-16T15:34:05.497Z,20.12
2022-10-16T15:35:37.113Z,20.11
2022-10-16T15:37:09.965Z,20.09
2022-10-16T15:38:41.864Z,20.05
2022-10-16T15:40:14.258Z,19.93
2022-10-16T15:41:46.558Z,19.90
2022-10-16T15:43:18.197Z,19.88
2022-10-16T15:44:49.752Z,19.82
2022-10-16T15:46:22.173Z,19.76
2022-10-16T15:47:53.791Z,19.70
2022-10-16T15:49:25.389Z,19.63
2022-10-16T15:50:57.065Z,19.50
2022-10-16T15:52:29.963Z,19.31
2022-10-16T15:54:03.134Z,19.11
2022-10-16T15:55:35.074Z,18.93
2022-10-16T15:57:06.652Z,18.73
2022-10-16T15:58:38.607Z,18.50
2022-10-16T16:00:11.618Z,18.34
2022-10-16T16:01:43.549Z,18.22
2022-10-16T16:03:15.314Z,18.11
2022-10-16T16:04:46.909Z,18.02
2022-10-16T16:06:18.712Z,17.95
2022-10-16T16:07:50.437Z,17.85
2022-10-16T16:09:22.063Z,17.75
2022-10-16T16:11:00.312Z,17.66
2022-10-16T16:12:31.947Z,17.53
2022-10-16T16:14:05.637Z,17.43
2022-10-16T16:15:40.213Z,17.37
2022-10-16T16:17:12.222Z,17.38
2022-10-16T16:18:44.153Z,17.40
2022-10-16T16:20:15.907Z,17.44
2022-10-16T16:21:47.874Z,17.49
2022-10-16T16:23:20.343Z,17.48
2022-10-16T16:24:52.346Z,17.41
2022-10-16T16:26:27.780Z,17.40
2022-10-16T16:27:59.530Z,17.32
2022-10-16T16:29:31.052Z,17.24
2022-10-16T16:31:02.983Z,17.20
2022-10-16T16:32:35.669Z,17.17
2022-10-16T16:34:07.536Z,17.19
2022-10-16T16:35:39.209Z,17.22
2022-10-16T16:37:10.902Z,17.22
2022-10-16T16:38:42.527Z,17.22
2022-10-16T16:40:14.293Z,17.22
2022-10-16T16:41:48.876Z,17.19
2022-10-16T16:43:21.451Z,17.12
2022-10-16T16:44:53.112Z,17.11
2022-10-16T16:46:24.864Z,17.02
2022-10-16T16:47:56.517Z,16.89
2022-10-16T16:49:28.241Z,16.79
2022-10-16T16:51:20.749Z,16.75
2022-10-16T16:52:52.857Z,16.69
2022-10-16T16:54:24.522Z,16.72
2022-10-16T16:55:57.361Z,16.70
2022-10-16T16:57:30.814Z,16.77
2022-10-16T16:59:02.686Z,16.79
2022-10-16T17:00:34.401Z,16.81
2022-10-16T17:02:06.270Z,16.83
2022-10-16T17:03:38.005Z,16.81
2022-10-16T17:05:09.924Z,16.74
2022-10-16T17:06:42.915Z,16.62
2022-10-16T17:08:14.723Z,16.59
2022-10-16T17:09:46.285Z,16.52
2022-10-16T17:11:19.488Z,16.48
2022-10-16T17:12:51.395Z,16.46
2022-10-16T17:14:23.344Z,16.40
2022-10-16T17:15:55.172Z,16.36
2022-10-16T17:17:27.152Z,16.31
2022-10-16T17:19:02.350Z,16.28
2022-10-16T17:20:36.723Z,16.25
2022-10-16T17:22:08.303Z,16.23
2022-10-16T17:23:39.979Z,16.19
2022-10-16T17:25:11.546Z,16.12
2022-10-16T17:26:49.388Z,16.06
2022-10-16T17:28:21.199Z,16.04
2022-10-16T17:29:53.435Z,15.98
2022-10-16T17:31:26.030Z,15.93
2022-10-16T17:32:57.593Z,15.90
2022-10-16T17:34:29.741Z,15.91
2022-10-16T17:36:01.407Z,15.93
2022-10-16T17:37:33.217Z,15.96
2022-10-16T17:39:09.179Z,15.98
2022-10-16T17:40:41.467Z,15.98
2022-10-16T17:42:13.665Z,15.98
2022-10-16T17:43:45.782Z,15.95
2022-10-16T17:45:18.150Z,15.92
2022-10-16T17:46:51.953Z,15.92
2022-10-16T17:48:24.294Z,15.93
2022-10-16T17:49:57.941Z,15.93
2022-10-16T17:51:31.108Z,15.92
2022-10-16T17:53:03.016Z,15.92
2022-10-16T17:54:35.051Z,15.90
2022-10-16T17:56:10.815Z,15.87
2022-10-16T17:57:42.582Z,15.83
2022-10-16T17:59:14.740Z,15.78
2022-10-16T18:00:46.775Z,15.69
2022-10-16T18:02:18.756Z,15.64
2022-10-16T18:03:57.183Z,15.59
2022-10-16T18:05:28.908Z,15.58
2022-10-16T18:07:01.025Z,15.56
2022-10-16T18:08:32.776Z,15.57
2022-10-16T18:10:11.649Z,15.54
2022-10-16T18:11:44.045Z,15.53
2022-10-16T18:13:16.637Z,15.50
2022-10-16T18:14:48.583Z,15.48
2022-10-16T18:16:20.355Z,15.45
2022-10-16T18:17:52.039Z,15.35
2022-10-16T18:19:24.300Z,15.26
2022-10-16T18:21:01.997Z,15.21
2022-10-16T18:22:36.121Z,15.19
2022-10-16T18:24:07.705Z,15.13
2022-10-16T18:25:39.448Z,15.12
2022-10-16T18:27:11.724Z,15.11
2022-10-16T18:28:43.542Z,15.06
2022-10-16T18:30:15.474Z,14.95
2022-10-16T18:31:47.108Z,14.86
2022-10-16T18:33:18.664Z,14.78
2022-10-16T18:34:50.402Z,14.77
2022-10-16T18:36:23.217Z,14.78
2022-10-16T18:37:59.083Z,14.78
2022-10-16T18:39:30.761Z,14.73
2022-10-16T18:41:05.201Z,14.68
2022-10-16T18:42:37.269Z,14.61
2022-10-16T18:44:10.081Z,14.60
2022-10-16T18:45:41.763Z,14.60
2022-10-16T18:47:13.634Z,14.57
2022-10-16T18:48:45.220Z,14.57
2022-10-16T18:50:16.948Z,14.51
2022-10-16T18:51:48.900Z,14.50
2022-10-16T18:53:20.954Z,14.44
2022-10-16T18:54:56.054Z,14.39
2022-10-16T18:56:28.088Z,14.30
2022-10-16T18:57:59.953Z,14.20
2022-10-16T18:59:31.988Z,14.12
2022-10-16T19:01:07.172Z,14.06
2022-10-16T19:02:38.910Z,14.06
2022-10-16T19:04:11.510Z,14.06
2022-10-16T19:05:46.677Z,14.04
2022-10-16T19:07:18.502Z,14.03
2022-10-16T19:08:50.735Z,14.04
2022-10-16T19:10:22.744Z,14.04
2022-10-16T19:11:54.580Z,14.04
2022-10-16T19:13:26.638Z,14.01
2022-10-16T19:14:58.373Z,13.97
2022-10-16T19:16:31.305Z,13.91
2022-10-16T19:18:02.842Z,13.80
2022-10-16T19:19:34.655Z,13.73
2022-10-16T19:22:59.133Z,13.64
2022-10-16T19:24:30.766Z,13.63
2022-10-16T19:26:08.895Z,13.60
2022-10-16T19:27:41.004Z,13.62
2022-10-16T19:29:12.656Z,13.59
2022-10-16T19:30:47.520Z,13.50
2022-10-16T19:32:20.772Z,13.44
2022-10-16T19:33:53.893Z,13.42
2022-10-16T19:35:26.865Z,13.41
2022-10-16T19:36:59.201Z,13.39
2022-10-16T19:38:31.423Z,13.38
2022-10-16T19:40:04.649Z,13.38
2022-10-16T19:41:37.236Z,13.37
2022-10-16T19:43:10.085Z,13.38
2022-10-16T19:44:42.326Z,13.39
2022-10-16T19:46:15.675Z,13.38
2022-10-16T19:47:47.396Z,13.39
2022-10-16T19:49:21.930Z,13.43
2022-10-16T19:50:53.557Z,13.41
2022-10-16T19:52:25.308Z,13.40
2022-10-16T19:53:58.055Z,13.37
2022-10-16T19:55:31.276Z,13.37
2022-10-16T19:57:02.938Z,13.35
2022-10-16T19:58:35.803Z,13.37
2022-10-16T20:00:07.982Z,13.33
2022-10-16T20:01:40.083Z,13.31
2022-10-16T20:03:11.655Z,13.32
2022-10-16T20:04:43.764Z,13.27
2022-10-16T20:06:15.393Z,13.22
2022-10-16T20:07:46.983Z,13.18
2022-10-16T20:09:18.597Z,13.20
2022-10-16T20:10:54.053Z,13.20
2022-10-16T20:12:25.841Z,13.08
2022-10-16T20:13:57.529Z,13.05
2022-10-16T20:15:29.000Z,13.00
2022-10-16T20:17:01.673Z,12.97
2022-10-16T20:18:34.193Z,12.95
2022-10-16T20:20:06.307Z,12.87
2022-10-16T20:21:39.133Z,12.85
2022-10-16T20:23:10.797Z,12.85
2022-10-16T20:24:42.547Z,12.85
2022-10-16T20:26:14.279Z,12.86
2022-10-16T20:27:45.847Z,12.87
2022-10-16T20:29:17.655Z,12.89
2022-10-16T20:30:49.592Z,12.90
2022-10-16T20:32:21.363Z,12.90
2022-10-16T20:33:53.474Z,12.89
2022-10-16T20:35:25.026Z,12.85
2022-10-16T20:36:56.598Z,12.82
2022-10-16T20:38:28.413Z,12.78
2022-10-16T20:39:59.999Z,12.75
2022-10-16T20:41:31.698Z,12.76
2022-10-16T20:43:03.466Z,12.70
2022-10-16T20:44:35.140Z,12.66
2022-10-16T20:46:09.081Z,12.62
2022-10-16T20:47:41.352Z,12.57
2022-10-16T20:49:28.250Z,12.57